Time;durP1;ratioP1;P1;durP2;ratioP2;P2;SDS_P1;SDS_P2;PMS_P1;PMS_P2;Temp;Humidity;BMP_temperature;BMP_pressure;BME280_temperature;BME280_humidity;BME280_pressure;Samples;Min_cycle;Max_cycle;Signal;HPM_P1;HPM_P2
2022/01/02 00:00:24;;;;;;;4.65;2.47;;;;;;;11.00;88.08;101835.88;4973194;28;99101;-42
2022/01/02 00:02:51;;;;;;;7.50;2.35;;;;;;;11.00;88.63;101826.88;4973638;28;96570;-42
2022/01/02 00:05:20;;;;;;;6.88;2.05;;;;;;;11.07;88.59;101836.47;4974251;28;96921;-42
2022/01/02 00:08:02;;;;;;;6.72;2.78;;;;;;;11.09;88.71;101833.69;4973866;28;100964;-42
2022/01/02 00:10:36;;;;;;;6.30;2.60;;;;;;;11.03;88.49;101826.72;4973859;28;100968;-42
2022/01/02 00:13:03;;;;;;;4.53;2.47;;;;;;;11.01;88.54;101823.19;4975343;28;96704;-42
2022/01/02 00:15:29;;;;;;;6.55;2.33;;;;;;;10.91;88.91;101795.66;4973955;28;96900;-42
2022/01/02 00:17:58;;;;;;;4.15;2.15;;;;;;;10.97;89.29;101794.50;4975095;28;97884;-42
2022/01/02 00:20:43;;;;;;;8.95;2.53;;;;;;;10.94;89.82;101790.09;4973918;28;100794;-42
2022/01/02 00:23:09;;;;;;;5.50;2.22;;;;;;;10.84;90.09;101788.75;4975210;28;96647;-42
2022/01/02 00:25:40;;;;;;;9.30;2.33;;;;;;;10.95;89.74;101818.97;4975273;28;96724;-42
2022/01/02 00:28:07;;;;;;;4.18;2.90;;;;;;;10.79;89.95;101799.81;4974634;28;98177;-41
2022/01/02 00:30:33;;;;;;;9.02;3.47;;;;;;;10.86;89.40;101815.81;4973462;28;101009;-42
2022/01/02 00:33:00;;;;;;;6.70;2.70;;;;;;;10.94;89.83;101819.94;4973771;28;96563;-42
2022/01/02 00:35:25;;;;;;;7.15;2.78;;;;;;;10.95;90.27;101816.25;4973900;28;96874;-42
2022/01/02 00:37:51;;;;;;;9.85;2.13;;;;;;;10.89;90.07;101797.56;4974616;28;98958;-42
2022/01/02 00:40:16;;;;;;;4.93;2.90;;;;;;;10.97;90.22;101805.34;4974058;28;126278;-42
2022/01/02 00:42:43;;;;;;;9.90;3.28;;;;;;;10.87;89.65;101782.31;4974916;28;96512;-42
2022/01/02 00:45:26;;;;;;;2.30;1.75;;;;;;;10.88;90.15;101779.53;4974156;28;96837;-42
2022/01/02 00:48:17;;;;;;;5.80;2.53;;;;;;;10.87;90.39;101779.59;4974387;28;97651;-42
2022/01/02 00:50:48;;;;;;;4.38;2.58;;;;;;;10.93;90.30;101785.63;4973168;28;100767;-42
2022/01/02 00:53:17;;;;;;;2.22;1.33;;;;;;;10.95;90.51;101788.25;4974670;28;96890;-42
2022/01/02 00:55:45;;;;;;;3.63;2.20;;;;;;;10.96;90.40;101785.47;4973292;28;96920;-42
2022/01/02 00:58:16;;;;;;;7.28;2.70;;;;;;;10.97;90.35;101781.81;4973111;28;101196;-42
2022/01/02 01:00:47;;;;;;;12.13;2.10;;;;;;;10.95;90.69;101770.16;4974099;28;98331;-42
2022/01/02 01:03:29;;;;;;;2.65;1.80;;;;;;;10.94;90.90;101763.00;4973553;28;96591;-42
2022/01/02 01:05:57;;;;;;;15.27;2.63;;;;;;;10.89;90.37;101745.19;4959047;28;96844;-42
2022/01/02 01:08:23;;;;;;;4.07;2.20;;;;;;;10.98;91.07;101752.88;4973145;28;100899;-42
2022/01/02 01:10:50;;;;;;;5.85;2.05;;;;;;;11.03;90.77;101767.94;4974797;28;99191;-42
2022/01/02 01:13:17;;;;;;;4.78;2.40;;;;;;;11.02;90.94;101744.50;4973163;28;96632;-42
2022/01/02 01:15:43;;;;;;;11.88;2.17;;;;;;;11.04;90.69;101733.59;4973305;28;96824;-42
2022/01/02 01:18:08;;;;;;;5.57;2.45;;;;;;;10.95;90.84;101712.38;4972576;28;101064;-42
2022/01/02 01:20:41;;;;;;;4.40;2.08;;;;;;;10.96;90.72;101704.13;4974438;28;97822;-42
2022/01/02 01:23:08;;;;;;;5.28;1.70;;;;;;;11.07;91.17;101722.59;4974932;28;96768;-42
2022/01/02 01:25:36;;;;;;;5.05;2.22;;;;;;;11.08;91.26;101715.34;4973270;28;96892;-41
2022/01/02 01:28:01;;;;;;;5.32;2.15;;;;;;;11.09;91.16;101708.97;4974199;28;99427;-42
2022/01/02 01:30:28;;;;;;;5.03;2.58;;;;;;;11.04;91.04;101701.94;4972966;28;100677;-42
2022/01/02 01:32:54;;;;;;;4.43;1.80;;;;;;;11.03;91.38;101708.28;4973082;28;96733;-41
2022/01/02 01:35:21;;;;;;;4.85;2.67;;;;;;;11.11;90.87;101710.66;4973562;28;96929;-42
2022/01/02 01:37:46;;;;;;;9.05;2.80;;;;;;;10.98;91.12;101685.09;4972918;28;99348;-42
2022/01/02 01:40:13;;;;;;;3.45;1.63;;;;;;;10.96;90.95;101673.44;4974305;28;97278;-42
2022/01/02 01:42:42;;;;;;;4.43;2.03;;;;;;;11.04;90.78;101674.81;4972508;28;96634;-42
2022/01/02 01:47:54;;;;;;;6.82;2.85;;;;;;;11.18;90.60;101690.41;4972385;28;97874;-42
2022/01/02 01:50:22;;;;;;;3.75;1.88;;;;;;;11.20;90.68;101688.50;4972697;28;100816;-42
2022/01/02 01:52:47;;;;;;;4.55;1.58;;;;;;;11.27;90.65;101698.09;4972579;28;96822;-42
2022/01/02 01:55:13;;;;;;;6.30;1.90;;;;;;;11.17;90.44;101656.09;4974540;28;96773;-42
2022/01/02 01:57:40;;;;;;;6.97;2.35;;;;;;;11.25;90.42;101672.00;4972338;28;101047;-42
2022/01/02 02:00:10;;;;;;;8.18;2.10;;;;;;;11.32;90.49;101677.97;4972308;28;99084;-42
2022/01/02 02:02:36;;;;;;;7.43;2.22;;;;;;;11.20;90.33;101655.06;4976048;28;96567;-42
2022/01/02 02:05:01;;;;;;;8.32;2.30;;;;;;;11.24;90.33;101652.09;4976364;28;96911;-42
2022/01/02 02:07:30;;;;;;;5.10;1.92;;;;;;;11.35;90.27;101680.53;4975146;28;100892;-42
2022/01/02 02:10:24;;;;;;;9.20;2.45;;;;;;;11.26;90.18;101658.34;4976899;28;99429;-42
2022/01/02 02:12:46;;;;;;;9.15;2.40;;;;;;;11.39;90.42;101668.53;4976893;28;96774;-42
2022/01/02 02:15:15;;;;;;;2.72;1.33;;;;;;;11.43;90.25;101675.56;4976045;28;96821;-42
2022/01/02 02:17:43;;;;;;;3.08;1.30;;;;;;;11.32;90.05;101640.88;4975565;28;101276;-42
2022/01/02 02:20:24;;;;;;;4.35;1.95;;;;;;;11.32;90.08;101638.19;4975551;28;100518;-42
2022/01/02 02:22:53;;;;;;;6.97;2.17;;;;;;;11.45;90.06;101649.25;4975780;28;96674;-42
2022/01/02 02:25:20;;;;;;;7.38;2.13;;;;;;;11.25;89.87;101617.75;4976142;28;96860;-42
2022/01/02 02:28:07;;;;;;;7.13;2.28;;;;;;;11.54;89.86;101656.03;4975439;28;100786;-42
2022/01/02 02:30:35;;;;;;;5.05;2.03;;;;;;;11.53;89.71;101656.97;4976622;28;98328;-41
2022/01/02 02:33:03;;;;;;;3.15;1.60;;;;;;;11.56;89.66;101651.38;4974980;28;96768;-42
2022/01/02 02:35:31;;;;;;;3.45;2.05;;;;;;;11.56;89.72;101643.25;4975595;28;96796;-42
2022/01/02 02:37:57;;;;;;;5.38;1.73;;;;;;;11.49;89.84;101629.16;4975065;28;100952;-42
2022/01/02 02:40:25;;;;;;;5.43;1.90;;;;;;;11.50;89.52;101613.75;4975097;28;100829;-42
2022/01/02 02:42:59;;;;;;;16.15;1.95;;;;;;;11.60;89.59;101615.88;4975125;28;96752;-42
2022/01/02 02:51:03;;;;;;;7.05;1.95;;;;;;;11.68;89.14;101582.91;4976386;28;97018;-42
2022/01/02 02:53:29;;;;;;;8.68;1.55;;;;;;;11.63;89.02;101590.41;4975154;28;96562;-42
2022/01/02 02:55:57;;;;;;;2.05;1.45;;;;;;;11.71;88.78;101614.44;4976533;28;97037;-42
2022/01/02 03:01:02;;;;;;;4.78;2.20;;;;;;;11.83;88.68;101636.34;4975181;28;97731;-42
2022/01/02 03:03:27;;;;;;;7.78;2.55;;;;;;;11.82;88.43;101614.72;4975245;28;96675;-42
2022/01/02 03:05:53;;;;;;;5.65;1.83;;;;;;;11.78;88.58;101605.00;4976430;28;96980;-42
2022/01/02 03:08:18;;;;;;;3.70;1.90;;;;;;;11.81;88.47;101613.84;4976192;28;99921;-42
2022/01/02 03:10:43;;;;;;;7.85;1.75;;;;;;;11.87;88.38;101613.56;4976241;28;97297;-42
2022/01/02 03:13:09;;;;;;;5.13;1.23;;;;;;;11.90;87.85;101613.38;4975426;28;96824;-42
2022/01/02 03:15:34;;;;;;;5.63;1.75;;;;;;;11.91;88.28;101622.38;4976364;28;96760;-42
2022/01/02 03:18:00;;;;;;;10.63;1.85;;;;;;;11.89;88.17;101592.63;4976189;28;97489;-41
2022/01/02 03:20:25;;;;;;;10.20;1.75;;;;;;;11.76;88.38;101580.66;4975905;28;97785;-41
2022/01/02 03:22:50;;;;;;;3.80;1.58;;;;;;;11.73;88.47;101586.25;4975836;28;96548;-42
2022/01/02 03:25:17;;;;;;;6.53;2.05;;;;;;;11.75;88.54;101570.75;4975251;28;117160;-42
2022/01/02 03:27:44;;;;;;;5.53;1.90;;;;;;;11.85;88.28;101582.84;4974375;28;100974;-42
2022/01/02 03:30:10;;;;;;;5.20;1.60;;;;;;;11.86;87.95;101581.88;4974391;28;101056;-42
2022/01/02 03:32:36;;;;;;;3.10;1.70;;;;;;;11.78;87.78;101556.16;4974547;28;96747;-42
2022/01/02 03:35:02;;;;;;;5.05;1.85;;;;;;;11.81;88.04;101547.81;4975565;28;97913;-42
2022/01/02 03:37:29;;;;;;;9.18;2.72;;;;;;;11.87;87.72;101553.81;4975624;28;99377;-42
2022/01/02 03:39:55;;;;;;;10.38;2.25;;;;;;;11.78;87.83;101535.28;4975873;28;99264;-42
2022/01/02 03:42:21;;;;;;;5.53;1.48;;;;;;;11.89;87.49;101545.56;4974405;28;96748;-42
2022/01/02 03:44:46;;;;;;;7.38;2.05;;;;;;;11.80;87.31;101538.81;4974462;28;96613;-42
2022/01/02 03:47:11;;;;;;;5.68;2.20;;;;;;;11.92;87.95;101558.09;4974804;28;97377;-42
2022/01/02 03:49:37;;;;;;;3.35;1.42;;;;;;;11.90;87.78;101552.78;4975391;28;97736;-42
2022/01/02 03:52:03;;;;;;;11.15;2.60;;;;;;;11.92;87.73;101552.66;4975311;28;101914;-42
2022/01/02 03:54:28;;;;;;;8.27;1.65;;;;;;;11.83;87.81;101537.75;4974345;28;96824;-42
2022/01/02 03:56:54;;;;;;;2.35;1.40;;;;;;;11.80;87.63;101538.81;4974328;28;125892;-42
2022/01/02 03:59:19;;;;;;;3.30;1.45;;;;;;;11.77;87.87;101528.09;4975394;28;97813;-42
2022/01/02 04:01:45;;;;;;;5.45;1.77;;;;;;;11.80;87.62;101527.94;4975295;28;96786;-42
2022/01/02 04:04:10;;;;;;;5.13;1.60;;;;;;;11.83;87.80;101533.19;4975631;28;96807;-42
2022/01/02 04:06:35;;;;;;;4.97;1.85;;;;;;;11.72;87.72;101516.63;4974216;28;126555;-42
2022/01/02 04:09:01;;;;;;;2.97;1.45;;;;;;;11.85;87.62;101546.69;4974514;28;126746;-42
2022/01/02 04:11:26;;;;;;;3.78;1.88;;;;;;;11.77;87.92;101527.22;4975108;28;96605;-42
2022/01/02 04:13:51;;;;;;;2.20;1.35;;;;;;;11.77;87.89;101532.66;4974943;28;103577;-42
2022/01/02 04:16:16;;;;;;;6.72;2.30;;;;;;;11.64;88.26;101505.34;4973584;28;102903;-42
2022/01/02 04:18:42;;;;;;;5.78;2.03;;;;;;;11.79;88.16;101539.75;4973866;28;126966;-42
2022/01/02 04:21:07;;;;;;;6.43;1.70;;;;;;;11.79;88.50;101545.19;4974483;28;117170;-42
2022/01/02 04:23:33;;;;;;;4.18;1.85;;;;;;;11.74;88.38;101522.84;4975734;28;96797;-42
2022/01/02 04:25:58;;;;;;;4.38;2.17;;;;;;;11.66;88.68;101509.72;4974742;28;97956;-42
2022/01/02 04:28:23;;;;;;;5.18;1.70;;;;;;;11.74;88.74;101513.84;4974519;28;124634;-42
2022/01/02 04:30:48;;;;;;;4.72;2.05;;;;;;;11.65;88.87;101498.94;4975352;28;98236;-42
2022/01/02 04:33:14;;;;;;;5.57;2.80;;;;;;;11.62;88.93;101486.41;4974162;28;115480;-42
2022/01/02 04:35:39;;;;;;;7.07;1.27;;;;;;;11.67;89.37;101497.00;4973535;28;125695;-42
2022/01/02 04:38:04;;;;;;;1.55;1.15;;;;;;;11.69;89.34;101486.97;4974797;28;99548;-42
2022/01/02 04:40:30;;;;;;;10.73;1.42;;;;;;;11.57;89.50;101471.38;4974981;28;96636;-42
2022/01/02 04:42:55;;;;;;;2.05;1.05;;;;;;;11.64;89.41;101489.06;4974868;28;96797;-42
2022/01/02 04:45:20;;;;;;;4.70;1.73;;;;;;;11.65;89.48;101482.66;4974019;28;117859;-42
2022/01/02 04:47:46;;;;;;;4.90;2.13;;;;;;;11.55;89.71;101467.84;4974536;28;97362;-42
2022/01/02 04:50:11;;;;;;;2.90;1.33;;;;;;;11.61;90.04;101473.81;4974111;28;114509;-42
2022/01/02 04:52:36;;;;;;;4.22;1.83;;;;;;;11.52;89.88;101449.91;4975545;28;96776;-42
2022/01/02 04:55:02;;;;;;;5.07;1.45;;;;;;;11.50;90.13;101430.13;4974828;28;98074;-42
2022/01/02 04:57:28;;;;;;;3.45;1.42;;;;;;;11.56;90.19;101435.22;4973040;28;101656;-42
2022/01/02 04:59:53;;;;;;;3.53;1.58;;;;;;;11.56;90.02;101415.31;4974290;28;96613;-41
2022/01/02 05:02:18;;;;;;;2.90;1.38;;;;;;;11.43;89.74;101388.03;4973531;28;96948;-42
2022/01/02 05:04:43;;;;;;;3.85;1.35;;;;;;;11.61;89.80;101422.25;4974297;28;101836;-42
2022/01/02 05:07:09;;;;;;;4.07;1.45;;;;;;;11.55;89.81;101408.16;4974465;28;99600;-41
2022/01/02 05:09:34;;;;;;;6.35;1.60;;;;;;;11.48;89.39;101388.63;4974591;28;96552;-42
2022/01/02 05:12:00;;;;;;;9.13;1.98;;;;;;;11.64;89.62;101399.50;4974911;28;97022;-42
2022/01/02 05:14:25;;;;;;;8.25;1.80;;;;;;;11.64;89.27;101388.66;4974245;28;101816;-42
2022/01/02 05:16:50;;;;;;;4.85;1.52;;;;;;;11.68;89.59;101392.94;4973853;28;126049;-42
2022/01/02 05:19:16;;;;;;;6.65;1.58;;;;;;;11.62;88.80;101377.00;4974224;28;101141;-42
2022/01/02 05:21:41;;;;;;;8.52;1.70;;;;;;;11.68;89.18;101387.53;4974735;28;96785;-42
2022/01/02 05:24:06;;;;;;;7.93;1.48;;;;;;;11.71;88.93;101383.75;4974050;28;97841;-42
2022/01/02 05:26:32;;;;;;;4.15;1.60;;;;;;;11.73;88.62;101393.56;4974018;28;101987;-42
2022/01/02 05:28:57;;;;;;;6.00;2.20;;;;;;;11.61;88.62;101356.28;4974684;28;96609;-41
2022/01/02 05:31:22;;;;;;;10.35;2.17;;;;;;;11.68;88.34;101361.25;4973880;28;110040;-42
2022/01/02 05:33:47;;;;;;;4.55;1.75;;;;;;;11.61;87.80;101365.28;4973464;28;117746;-42
2022/01/02 05:36:13;;;;;;;12.48;2.28;;;;;;;11.65;87.72;101364.13;4973744;28;113134;-42
2022/01/02 05:38:38;;;;;;;5.68;2.60;;;;;;;11.61;88.05;101353.56;4977762;28;96666;-42
2022/01/02 05:41:03;;;;;;;4.50;2.50;;;;;;;11.52;87.34;101337.81;4978423;28;96759;-42
2022/01/02 05:43:29;;;;;;;2.65;1.35;;;;;;;11.47;87.67;101328.09;4976576;28;124097;-42
2022/01/02 05:45:55;;;;;;;6.35;2.92;;;;;;;11.59;87.59;101342.78;4977542;28;97838;-42
2022/01/02 05:48:20;;;;;;;9.73;2.08;;;;;;;11.56;87.63;101331.22;4976831;28;96687;-42
2022/01/02 05:50:46;;;;;;;2.72;1.70;;;;;;;11.43;87.53;101317.50;4977443;28;97001;-42
2022/01/02 05:53:11;;;;;;;5.82;2.63;;;;;;;11.55;87.13;101324.94;4977113;28;99051;-41
2022/01/02 05:55:37;;;;;;;8.70;2.47;;;;;;;11.37;87.13;101288.91;4976998;28;114702;-42
2022/01/02 05:58:03;;;;;;;3.22;2.15;;;;;;;11.42;87.05;101292.22;4977732;28;96549;-42
2022/01/02 06:00:28;;;;;;;3.65;1.88;;;;;;;11.40;87.08;101291.44;4977191;28;96795;-42
2022/01/02 06:02:54;;;;;;;3.83;2.00;;;;;;;11.42;87.27;101278.66;4977061;28;97705;-42
2022/01/02 06:05:19;;;;;;;4.63;2.10;;;;;;;11.46;87.29;101284.75;4977685;28;97254;-42
2022/01/02 06:07:44;;;;;;;5.07;2.30;;;;;;;11.45;87.13;101272.19;4976699;28;107962;-42
2022/01/02 06:10:11;;;;;;;9.82;2.00;;;;;;;11.40;86.93;101263.44;4977505;28;96797;-42
2022/01/02 06:12:36;;;;;;;6.18;2.60;;;;;;;11.46;86.91;101274.81;4975569;28;126545;-42
2022/01/02 06:15:02;;;;;;;6.15;2.53;;;;;;;11.47;86.83;101271.13;4975895;28;126431;-42
2022/01/02 06:17:27;;;;;;;3.72;1.50;;;;;;;11.47;86.55;101260.28;4975732;28;96738;-42
2022/01/02 06:19:52;;;;;;;6.95;2.67;;;;;;;11.36;87.05;101235.59;4977153;28;96849;-42
2022/01/02 06:22:18;;;;;;;5.05;1.90;;;;;;;11.46;86.73;101258.53;4976864;28;97891;-42
2022/01/02 06:24:43;;;;;;;4.13;2.40;;;;;;;11.42;86.67;101251.53;4976318;28;109537;-42
2022/01/02 06:27:08;;;;;;;5.82;1.73;;;;;;;11.42;86.90;101246.09;4977079;28;96480;-42
2022/01/02 06:29:34;;;;;;;7.90;2.88;;;;;;;11.32;86.90;101227.75;4977445;28;96751;-42
2022/01/02 06:31:59;;;;;;;7.35;2.67;;;;;;;11.40;87.12;101236.31;4976425;28;97528;-42
2022/01/02 06:34:24;;;;;;;3.92;1.88;;;;;;;11.30;86.99;101216.09;4976630;28;97849;-42
2022/01/02 06:36:50;;;;;;;9.40;2.67;;;;;;;11.26;86.46;101196.44;4976366;28;96474;-42
2022/01/02 06:39:15;;;;;;;10.25;2.72;;;;;;;11.21;87.02;101199.41;4976639;28;101352;-42
2022/01/02 06:41:40;;;;;;;4.95;2.47;;;;;;;11.41;86.41;101213.63;4976097;28;112532;-42
2022/01/02 06:44:06;;;;;;;5.32;2.42;;;;;;;11.38;85.93;101198.41;4976349;28;106563;-42
2022/01/02 06:46:31;;;;;;;9.60;2.95;;;;;;;11.41;85.90;101206.38;4976058;28;115462;-42
2022/01/02 06:48:56;;;;;;;8.73;2.60;;;;;;;11.40;86.03;101188.34;4976189;28;96706;-42
2022/01/02 06:51:21;;;;;;;5.05;1.95;;;;;;;11.48;85.80;101196.91;4975566;28;127517;-42
2022/01/02 06:53:47;;;;;;;6.88;1.77;;;;;;;11.47;85.57;101191.59;4976404;28;109202;-42
2022/01/02 06:56:12;;;;;;;5.80;2.10;;;;;;;11.51;85.90;101195.84;4976122;28;103315;-42
2022/01/02 06:58:38;;;;;;;4.03;1.80;;;;;;;11.47;86.21;101192.44;4975973;28;114942;-42
2022/01/02 07:01:05;;;;;;;3.58;1.58;;;;;;;11.45;86.28;101193.50;4973800;28;100498;-42
2022/01/02 07:03:32;;;;;;;6.18;1.98;;;;;;;11.39;86.26;101185.72;4974837;28;101308;-42
2022/01/02 07:05:59;;;;;;;4.05;1.92;;;;;;;11.37;86.24;101184.94;4975161;28;96659;-42
2022/01/02 07:08:24;;;;;;;11.98;2.25;;;;;;;11.40;86.67;101188.34;4974916;28;96859;-42
2022/01/02 07:10:49;;;;;;;3.85;1.75;;;;;;;11.33;86.97;101197.81;4976062;28;98892;-42
2022/01/02 07:13:15;;;;;;;6.38;2.20;;;;;;;11.36;87.29;101215.75;4975358;28;127224;-42
2022/01/02 07:15:40;;;;;;;4.40;2.30;;;;;;;11.31;88.03;101210.59;4975952;28;102819;-42
2022/01/02 07:18:05;;;;;;;4.43;2.22;;;;;;;11.20;87.58;101197.69;4976952;28;96792;-42
2022/01/02 07:20:31;;;;;;;7.85;2.17;;;;;;;11.21;88.00;101199.41;4975081;28;126567;-42
2022/01/02 07:22:56;;;;;;;6.55;2.45;;;;;;;11.24;88.02;101198.38;4975967;28;97459;-42
2022/01/02 07:25:21;;;;;;;5.97;2.15;;;;;;;11.27;87.94;101204.50;4975815;28;96613;-42
2022/01/02 07:27:46;;;;;;;4.30;2.08;;;;;;;11.42;88.15;101239.81;4975628;28;104005;-42
2022/01/02 07:30:12;;;;;;;4.07;2.13;;;;;;;11.26;87.68;101200.03;4975107;28;119090;-42
2022/01/02 07:32:39;;;;;;;4.25;1.75;;;;;;;11.46;88.00;101241.34;4975710;28;97824;-41
2022/01/02 07:35:06;;;;;;;6.30;2.00;;;;;;;11.40;87.60;101247.16;4975795;28;96711;-42
2022/01/02 07:37:33;;;;;;;3.63;2.00;;;;;;;11.29;87.91;101217.94;4976057;28;96803;-42
2022/01/02 07:39:58;;;;;;;3.38;1.42;;;;;;;11.28;88.02;101221.63;4974263;28;101310;-42
2022/01/02 07:42:24;;;;;;;6.93;1.85;;;;;;;11.36;88.20;101229.31;4975940;28;97808;-42
2022/01/02 07:44:49;;;;;;;3.50;1.80;;;;;;;11.24;88.29;101210.06;4976271;28;96504;-42
2022/01/02 07:47:21;;;;;;;7.47;1.92;;;;;;;11.22;88.79;101221.97;4975597;28;96793;-42
2022/01/02 07:49:46;;;;;;;10.95;2.13;;;;;;;11.21;89.07;101201.25;4975244;28;97455;-42
2022/01/02 07:52:11;;;;;;;4.72;2.03;;;;;;;11.09;88.84;101205.56;4975137;28;118606;-41
2022/01/02 07:54:38;;;;;;;4.03;1.95;;;;;;;11.00;89.10;101185.28;4975749;28;96521;-42
2022/01/02 07:57:04;;;;;;;2.55;1.70;;;;;;;11.21;89.15;101217.53;4975691;28;96746;-42
2022/01/02 07:59:29;;;;;;;5.10;1.95;;;;;;;11.21;89.01;101221.13;4974366;28;100117;-42
2022/01/02 08:01:55;;;;;;;4.18;1.90;;;;;;;11.22;89.11;101217.41;4975282;28;97142;-42
2022/01/02 08:04:20;;;;;;;7.35;2.25;;;;;;;11.12;89.33;101215.34;4975587;28;96577;-41
2022/01/02 08:06:46;;;;;;;4.47;2.00;;;;;;;11.12;89.14;101221.66;4975811;28;96817;-41
2022/01/02 08:09:11;;;;;;;6.30;2.40;;;;;;;11.20;89.20;101222.09;4975283;28;97813;-42
2022/01/02 08:11:37;;;;;;;3.45;1.50;;;;;;;11.19;89.26;101217.63;4975118;28;109811;-42
2022/01/02 08:14:02;;;;;;;9.30;2.33;;;;;;;11.22;89.22;101224.69;4974092;28;114750;-42
2022/01/02 08:16:28;;;;;;;5.45;1.58;;;;;;;11.09;89.02;101197.44;4975366;28;96840;-42
2022/01/02 08:18:53;;;;;;;11.48;2.65;;;;;;;11.09;88.56;101205.56;4975085;28;97884;-42
2022/01/02 08:21:18;;;;;;;4.75;1.80;;;;;;;11.14;88.67;101229.69;4972736;28;122695;-42
2022/01/02 08:23:44;;;;;;;5.22;1.92;;;;;;;10.99;88.35;101205.22;4975501;28;96462;-42
2022/01/02 08:26:09;;;;;;;8.63;1.65;;;;;;;10.86;88.33;101178.91;4975303;28;100884;-42
2022/01/02 08:28:35;;;;;;;6.00;2.22;;;;;;;10.99;88.17;101213.34;4974720;28;99400;-41
2022/01/02 08:31:00;;;;;;;4.55;2.33;;;;;;;10.99;87.73;101220.63;4975206;28;97800;-42
2022/01/02 08:33:26;;;;;;;4.85;2.33;;;;;;;10.89;87.83;101203.97;4975358;28;96623;-41
2022/01/02 08:35:51;;;;;;;5.57;2.85;;;;;;;10.97;87.53;101222.53;4975330;28;96830;-42
2022/01/02 08:38:16;;;;;;;9.75;2.20;;;;;;;10.87;87.24;101222.19;4974468;28;97870;-42
2022/01/02 08:40:42;;;;;;;6.07;2.50;;;;;;;10.84;86.98;101201.56;4974971;28;97588;-42
2022/01/02 08:43:08;;;;;;;7.43;2.15;;;;;;;10.90;86.50;101211.16;4975148;28;96767;-42
2022/01/02 08:45:36;;;;;;;10.98;2.22;;;;;;;10.93;86.40;101202.84;4973811;28;96907;-42
2022/01/02 08:48:03;;;;;;;8.48;3.90;;;;;;;10.98;86.74;101214.31;4974602;28;97937;-42
2022/01/02 08:50:28;;;;;;;4.18;2.42;;;;;;;10.95;86.43;101209.06;4974894;28;98055;-42
2022/01/02 08:52:54;;;;;;;5.18;2.25;;;;;;;10.91;86.26;101183.09;4975087;28;96482;-42
2022/01/02 08:55:19;;;;;;;5.07;2.65;;;;;;;10.74;86.72;101173.22;4974898;28;103444;-42
2022/01/02 08:57:44;;;;;;;5.55;2.40;;;;;;;10.78;86.52;101176.66;4974407;28;108032;-42
2022/01/02 09:00:11;;;;;;;4.72;2.33;;;;;;;10.78;86.40;101171.22;4974258;28;97856;-42
2022/01/02 09:02:37;;;;;;;7.10;3.13;;;;;;;10.76;86.18;101178.56;4973007;28;96556;-42
2022/01/02 09:05:03;;;;;;;6.80;2.92;;;;;;;10.79;86.44;101186.50;4974884;28;96766;-42
2022/01/02 09:07:28;;;;;;;7.10;2.92;;;;;;;10.76;86.35;101190.28;4973154;28;100900;-42
2022/01/02 09:09:54;;;;;;;11.05;3.35;;;;;;;10.92;86.17;101202.97;4974242;28;104682;-42
2022/01/02 09:12:19;;;;;;;5.85;3.00;;;;;;;10.89;86.17;101200.41;4976570;28;116658;-42
2022/01/02 09:14:44;;;;;;;6.43;2.35;;;;;;;10.90;86.33;101208.47;4977269;28;113074;-42
2022/01/02 09:17:10;;;;;;;5.15;2.90;;;;;;;10.82;86.16;101186.31;4978369;28;97382;-42
2022/01/02 09:19:35;;;;;;;7.57;4.13;;;;;;;10.93;86.13;101204.69;4978388;28;97313;-42
2022/01/02 09:22:01;;;;;;;7.63;3.15;;;;;;;10.94;86.00;101218.16;4978284;28;96474;-42
2022/01/02 09:24:26;;;;;;;7.03;3.17;;;;;;;10.83;86.21;101198.94;4977932;28;96819;-42
2022/01/02 09:26:52;;;;;;;7.75;2.97;;;;;;;10.94;85.79;101215.47;4977427;28;97933;-42
2022/01/02 09:29:17;;;;;;;7.88;3.10;;;;;;;10.99;85.84;101213.34;4977410;28;101013;-41
2022/01/02 09:31:42;;;;;;;5.30;2.78;;;;;;;10.92;86.08;101198.41;4977607;28;105420;-42
2022/01/02 09:34:08;;;;;;;13.20;2.78;;;;;;;11.03;85.96;101222.16;4977126;28;109881;-42
2022/01/02 09:36:33;;;;;;;3.05;2.15;;;;;;;11.07;85.80;101222.88;4977362;28;99225;-42
2022/01/02 09:38:59;;;;;;;3.90;1.98;;;;;;;11.10;85.62;101223.56;4976194;28;100721;-42
2022/01/02 09:41:24;;;;;;;6.97;2.72;;;;;;;11.03;85.74;101216.75;4977154;28;112661;-42
2022/01/02 09:43:50;;;;;;;8.32;3.00;;;;;;;11.03;85.63;101209.47;4978100;28;96875;-42
2022/01/02 09:46:24;;;;;;;7.43;3.22;;;;;;;11.16;85.62;101222.34;4976066;28;101024;-42
2022/01/02 09:48:51;;;;;;;6.50;3.33;;;;;;;11.08;85.51;101202.94;4976037;28;100905;-42
2022/01/02 09:51:18;;;;;;;6.40;2.80;;;;;;;11.08;85.05;101202.94;4975932;28;96560;-42
2022/01/02 09:53:45;;;;;;;6.00;3.08;;;;;;;11.30;85.26;101235.97;4976089;28;96889;-42
2022/01/02 09:56:11;;;;;;;4.60;2.53;;;;;;;11.39;85.00;101226.41;4976683;28;98898;-42
2022/01/02 09:58:38;;;;;;;10.20;3.10;;;;;;;11.46;84.81;101228.69;4975884;28;100774;-41
2022/01/02 10:01:03;;;;;;;3.97;2.50;;;;;;;11.54;84.68;101224.66;4977257;28;96657;-42
2022/01/02 10:03:41;;;;;;;6.80;3.33;;;;;;;11.55;84.72;101223.69;4977482;28;96855;-42
2022/01/02 10:06:06;;;;;;;7.82;3.33;;;;;;;11.39;84.61;101192.06;4975889;28;101204;-42
2022/01/02 10:08:36;;;;;;;8.77;3.13;;;;;;;11.40;84.82;101193.78;4976683;28;126349;-42
2022/01/02 10:11:10;;;;;;;8.63;3.55;;;;;;;11.44;85.12;101210.72;4976960;28;96659;-42
2022/01/02 10:13:46;;;;;;;4.53;2.60;;;;;;;11.44;85.12;101205.31;4975806;28;96743;-42
2022/01/02 10:16:34;;;;;;;5.97;3.70;;;;;;;11.41;84.72;101195.53;4975176;28;100833;-42
2022/01/02 10:19:00;;;;;;;6.97;3.22;;;;;;;11.40;85.17;101210.06;4975561;28;101212;-42
2022/01/02 10:21:52;;;;;;;7.45;2.88;;;;;;;11.40;85.20;101209.19;4975910;28;96510;-42
2022/01/02 10:24:25;;;;;;;7.68;3.22;;;;;;;11.39;85.44;101208.31;4975356;28;96732;-42
2022/01/02 10:27:14;;;;;;;9.10;3.70;;;;;;;11.25;85.46;101201.00;4976766;28;99480;-42
2022/01/02 10:29:58;;;;;;;4.25;2.33;;;;;;;11.35;85.43;101212.16;4976847;28;97876;-42
2022/01/02 10:32:39;;;;;;;6.80;2.78;;;;;;;11.34;85.73;101223.09;4975743;28;96836;-42
2022/01/02 10:35:17;;;;;;;5.82;2.53;;;;;;;11.31;85.75;101216.03;4976404;28;98252;-41
2022/01/02 10:37:51;;;;;;;6.95;2.78;;;;;;;11.37;85.79;101217.50;4975126;28;100929;-42
2022/01/02 10:40:33;;;;;;;5.78;2.42;;;;;;;11.35;85.82;101219.44;4975258;28;100898;-42
2022/01/02 10:43:00;;;;;;;13.75;3.47;;;;;;;11.36;85.63;101223.88;4975127;28;96720;-42
2022/01/02 10:45:47;;;;;;;6.43;2.55;;;;;;;11.38;85.90;101233.69;4975395;28;97032;-42
2022/01/02 10:48:15;;;;;;;8.68;3.30;;;;;;;11.37;86.01;101221.09;4975930;28;99671;-42
2022/01/02 10:51:15;;;;;;;9.85;3.17;;;;;;;11.42;86.04;101232.53;4974976;28;100748;-42
2022/01/02 10:53:54;;;;;;;7.43;2.22;;;;;;;11.44;86.17;101243.28;4976591;28;96492;-42
2022/01/02 10:56:26;;;;;;;7.28;2.70;;;;;;;11.38;86.05;101211.13;4974972;28;96718;-42
2022/01/02 10:58:52;;;;;;;;;;;;;;;11.52;86.33;101229.28;4975243;28;100984;-42
2022/01/02 11:01:17;;;;;;;4.22;1.42;;;;;;;11.53;86.37;101236.44;4976204;28;97735;-42
2022/01/02 11:03:47;;;;;;;9.35;2.38;;;;;;;11.54;86.51;101244.50;4976678;28;96593;-42
2022/01/02 11:06:23;;;;;;;8.52;2.80;;;;;;;11.57;86.49;101248.88;4974768;28;96829;-42
2022/01/02 11:08:49;;;;;;;13.60;2.17;;;;;;;11.61;86.38;101245.91;4973748;28;100794;-43
2022/01/02 11:11:18;;;;;;;4.82;2.03;;;;;;;11.64;86.36;101247.56;4973984;28;98092;-42
2022/01/02 11:13:44;;;;;;;9.40;2.88;;;;;;;11.68;86.06;101244.56;4976136;28;96616;-42
2022/01/02 11:16:09;;;;;;;4.22;1.88;;;;;;;11.58;86.65;101242.47;4976478;28;96744;-42
2022/01/02 11:18:35;;;;;;;8.20;1.95;;;;;;;11.72;86.47;101266.94;4976108;28;97509;-42
2022/01/02 11:21:03;;;;;;;9.88;2.10;;;;;;;11.75;86.53;101257.75;4974477;28;101103;-42
2022/01/02 11:23:52;;;;;;;7.32;1.85;;;;;;;11.78;86.86;101266.59;4974723;28;96614;-42
2022/01/02 11:26:46;;;;;;;4.30;1.45;;;;;;;11.77;86.52;101272.97;4976697;28;96649;-42
2022/01/02 11:29:11;;;;;;;4.82;1.63;;;;;;;11.76;86.67;101265.81;4975893;28;98013;-42
2022/01/02 11:31:40;;;;;;;7.78;2.17;;;;;;;11.67;86.37;101260.94;4976109;28;97097;-42
2022/01/02 11:34:21;;;;;;;7.70;2.10;;;;;;;11.80;86.45;101283.66;4974534;28;96646;-42